Time;durP1;ratioP1;P1;durP2;ratioP2;P2;SDS_P1;SDS_P2;PMS_P1;PMS_P2;Temp;Humidity;BMP_temperature;BMP_pressure;BME280_temperature;BME280_humidity;BME280_pressure;Samples;Min_cycle;Max_cycle;Signal;HPM_P1;HPM_P2
2022/09/18 00:02:03;;;;;;;6.47;1.73;;;9.10;99.90;;;;;;5120488;27;20043;-73
2022/09/18 00:04:29;;;;;;;4.50;1.20;;;9.10;99.90;;;;;;5138564;27;20078;-73
2022/09/18 00:06:55;;;;;;;3.60;1.13;;;9.20;99.90;;;;;;5138244;27;20440;-73
2022/09/18 00:09:21;;;;;;;4.35;1.02;;;9.20;99.90;;;;;;5138139;27;20039;-73
2022/09/18 00:11:48;;;;;;;4.70;1.40;;;9.20;99.90;;;;;;5138159;27;20398;-73
2022/09/18 00:14:17;;;;;;;3.28;0.90;;;9.20;99.90;;;;;;5137956;27;20499;-73
2022/09/18 00:16:43;;;;;;;8.98;1.23;;;9.30;99.90;;;;;;5137680;27;20035;-73
2022/09/18 00:19:09;;;;;;;5.10;0.90;;;9.30;99.90;;;;;;5138036;27;20039;-74
2022/09/18 00:21:36;;;;;;;7.15;1.83;;;9.30;99.90;;;;;;5137876;27;20082;-74
2022/09/18 00:24:03;;;;;;;6.55;1.10;;;9.30;99.90;;;;;;5137783;27;20092;-74
2022/09/18 00:26:29;;;;;;;8.77;2.08;;;9.30;99.90;;;;;;5137695;27;20516;-74
2022/09/18 00:28:57;;;;;;;4.70;1.50;;;9.30;99.90;;;;;;5137438;27;20047;-73
2022/09/18 00:31:26;;;;;;;5.78;1.05;;;9.30;99.90;;;;;;5137682;27;20126;-73
2022/09/18 00:33:53;;;;;;;8.02;1.65;;;9.20;99.90;;;;;;5137931;27;20406;-73
2022/09/18 00:36:19;;;;;;;6.28;1.40;;;9.20;99.90;;;;;;5138277;27;20485;-73
2022/09/18 00:38:45;;;;;;;3.85;1.00;;;9.20;99.90;;;;;;5137630;27;20057;-73
2022/09/18 00:41:17;;;;;;;8.30;1.38;;;9.20;99.90;;;;;;5137519;27;20209;-73
2022/09/18 00:43:44;;;;;;;8.20;1.73;;;9.20;99.90;;;;;;5138021;27;20130;-74
2022/09/18 00:46:24;;;;;;;8.68;1.10;;;9.20;99.90;;;;;;5137372;27;20142;-74
2022/09/18 00:49:04;;;;;;;6.85;1.10;;;9.20;99.90;;;;;;5137197;27;20475;-73
2022/09/18 00:51:33;;;;;;;8.57;1.30;;;9.10;99.90;;;;;;5137308;27;20047;-74
2022/09/18 00:54:16;;;;;;;8.30;1.92;;;9.40;99.90;;;;;;5137109;27;20047;-73
2022/09/18 00:56:43;;;;;;;5.35;1.50;;;9.20;99.90;;;;;;5137841;27;20134;-74
2022/09/18 00:59:09;;;;;;;;;;;9.20;99.90;;;;;;5137562;27;20126;-73
2022/09/18 01:01:35;;;;;;;4.45;1.25;;;9.30;99.90;;;;;;5137101;27;19964;-74
2022/09/18 01:04:03;;;;;;;6.25;1.27;;;9.30;99.90;;;;;;5137041;27;20043;-73
2022/09/18 01:07:09;;;;;;;8.95;1.70;;;9.30;99.90;;;;;;5136957;27;20394;-73
2022/09/18 01:09:41;;;;;;;7.28;1.45;;;9.40;99.90;;;;;;5137273;27;20414;-74
2022/09/18 01:12:17;;;;;;;7.90;1.10;;;9.40;99.90;;;;;;5137117;27;20046;-73
2022/09/18 01:14:56;;;;;;;9.80;1.83;;;9.50;99.90;;;;;;5136921;27;20046;-73
2022/09/18 01:17:33;;;;;;;7.10;1.27;;;9.50;99.90;;;;;;5118464;27;20092;-73
2022/09/18 01:20:24;;;;;;;4.55;1.45;;;9.50;99.90;;;;;;5137119;27;20386;-74
2022/09/18 01:23:14;;;;;;;8.23;1.42;;;9.60;99.90;;;;;;5136931;27;20390;-74
2022/09/18 01:26:34;;;;;;;9.18;1.88;;;9.60;99.90;;;;;;5137074;27;20079;-73
2022/09/18 01:29:15;;;;;;;;;;;9.60;99.90;;;;;;5053360;28;20041;-73
2022/09/18 01:31:51;;;;;;;6.47;1.30;;;9.70;99.90;;;;;;5136425;27;19926;-73
2022/09/18 01:34:51;;;;;;;5.95;1.17;;;9.70;99.90;;;;;;5136698;27;20043;-73
2022/09/18 01:37:26;;;;;;;4.78;1.33;;;9.70;99.90;;;;;;5137009;27;20127;-73
2022/09/18 01:39:59;;;;;;;5.18;1.42;;;9.90;99.90;;;;;;5136429;27;20051;-74
2022/09/18 01:42:27;;;;;;;5.28;1.45;;;9.70;99.90;;;;;;5135988;27;20043;-74
2022/09/18 01:44:56;;;;;;;8.40;1.50;;;9.70;99.90;;;;;;5136557;27;20035;-73
2022/09/18 01:47:27;;;;;;;5.07;1.23;;;9.70;99.90;;;;;;5136167;27;20042;-73
2022/09/18 01:49:55;;;;;;;6.65;1.55;;;9.70;99.90;;;;;;5135748;27;20047;-73
2022/09/18 01:52:35;;;;;;;5.90;1.35;;;9.80;99.90;;;;;;5136101;27;20082;-74
2022/09/18 01:55:02;;;;;;;6.55;1.20;;;9.80;99.90;;;;;;5118406;27;20047;-73
2022/09/18 01:57:42;;;;;;;9.80;1.55;;;9.80;99.90;;;;;;5136015;27;20102;-74
2022/09/18 02:00:10;;;;;;;6.20;1.65;;;9.80;99.90;;;;;;5135600;27;20043;-74
2022/09/18 02:02:50;;;;;;;6.78;1.23;;;9.80;99.90;;;;;;5135940;27;20400;-73
2022/09/18 02:05:25;;;;;;;8.90;1.67;;;9.80;99.90;;;;;;5135824;27;20428;-73
2022/09/18 02:08:13;;;;;;;7.22;1.35;;;9.90;99.90;;;;;;5135886;27;20462;-74
2022/09/18 02:10:52;;;;;;;4.63;1.20;;;9.90;99.90;;;;;;5135795;27;20471;-74
2022/09/18 02:13:23;;;;;;;9.10;1.42;;;9.90;99.90;;;;;;5135737;27;20134;-74
2022/09/18 02:15:54;;;;;;;5.53;1.30;;;9.90;99.90;;;;;;5135565;27;20035;-74
2022/09/18 02:18:28;;;;;;;8.10;1.73;;;9.90;99.90;;;;;;5136073;27;20035;-74
2022/09/18 02:20:55;;;;;;;6.88;1.95;;;9.90;99.90;;;;;;5135999;27;20035;-73
2022/09/18 02:23:22;;;;;;;11.23;1.73;;;9.90;99.90;;;;;;5135505;27;20049;-74
2022/09/18 02:25:54;;;;;;;;;;;9.90;99.90;;;;;;5135964;27;20047;-73
2022/09/18 02:28:24;;;;;;;7.20;1.33;;;9.90;99.90;;;;;;5135145;27;19926;-74
2022/09/18 02:30:50;;;;;;;5.07;1.10;;;9.90;99.90;;;;;;5135418;27;20035;-74
2022/09/18 02:33:30;;;;;;;6.10;1.73;;;10.20;99.90;;;;;;5135687;27;20051;-74
2022/09/18 02:36:12;;;;;;;7.00;1.63;;;9.90;99.90;;;;;;5135190;27;20039;-73
2022/09/18 02:38:59;;;;;;;5.75;1.40;;;9.80;99.90;;;;;;5135163;27;20043;-73
2022/09/18 02:41:59;;;;;;;8.88;1.70;;;9.80;99.90;;;;;;5135223;27;20130;-74
2022/09/18 02:44:35;;;;;;;6.38;1.38;;;9.90;99.90;;;;;;5134852;27;20137;-74
2022/09/18 02:47:12;;;;;;;12.23;1.52;;;9.90;99.90;;;;;;5135090;27;20122;-73
2022/09/18 02:49:49;;;;;;;7.77;1.87;;;9.90;99.90;;;;;;5135093;27;20533;-74
2022/09/18 02:52:21;;;;;;;;;;;9.80;99.90;;;;;;5135745;27;20039;-73
2022/09/18 02:55:01;;;;;;;6.90;1.50;;;9.90;99.90;;;;;;5134990;27;19919;-74
2022/09/18 02:57:36;;;;;;;6.60;1.33;;;9.90;99.90;;;;;;5134666;27;20043;-73
2022/09/18 03:00:04;;;;;;;8.00;1.88;;;10.00;99.90;;;;;;5135256;27;20042;-73
2022/09/18 03:02:30;;;;;;;9.50;1.45;;;9.90;99.90;;;;;;5134123;27;20125;-74
2022/09/18 03:04:56;;;;;;;4.75;1.15;;;9.90;99.90;;;;;;5134848;27;20126;-74
2022/09/18 03:07:21;;;;;;;7.13;1.35;;;9.90;99.90;;;;;;5134830;27;20149;-74
2022/09/18 03:09:47;;;;;;;5.60;1.48;;;9.90;99.90;;;;;;5134874;27;20435;-74
2022/09/18 03:12:13;;;;;;;5.97;1.50;;;9.90;99.90;;;;;;5134388;27;20425;-73
2022/09/18 03:14:38;;;;;;;6.03;1.67;;;9.90;99.90;;;;;;5135316;27;20043;-73
2022/09/18 03:17:04;;;;;;;11.32;1.40;;;9.90;99.90;;;;;;5134737;27;20039;-73
2022/09/18 03:19:30;;;;;;;6.43;1.20;;;9.90;99.90;;;;;;5134701;28;20479;-74
2022/09/18 03:21:56;;;;;;;6.75;1.23;;;9.90;99.90;;;;;;5134744;28;20078;-74
2022/09/18 03:24:24;;;;;;;5.05;1.33;;;9.90;99.90;;;;;;5134650;28;20043;-74
2022/09/18 03:26:50;;;;;;;9.98;1.45;;;10.00;99.90;;;;;;5134847;28;20039;-73
2022/09/18 03:29:16;;;;;;;7.32;1.38;;;10.00;99.90;;;;;;5135042;28;20050;-74
2022/09/18 03:31:42;;;;;;;5.18;1.38;;;10.00;99.90;;;;;;5134756;28;20043;-73
2022/09/18 03:34:07;;;;;;;4.18;0.95;;;10.30;99.90;;;;;;5134544;28;20122;-73
2022/09/18 03:36:33;;;;;;;8.10;1.13;;;10.10;99.90;;;;;;5134815;28;20043;-73
2022/09/18 03:38:58;;;;;;;6.45;1.42;;;10.10;99.90;;;;;;5134398;28;20043;-73
2022/09/18 03:41:24;;;;;;;9.00;1.40;;;10.40;99.90;;;;;;5134475;28;20078;-74
2022/09/18 03:43:50;;;;;;;9.68;1.23;;;10.10;99.90;;;;;;5134464;28;20059;-73
2022/09/18 03:46:22;;;;;;;10.20;1.30;;;10.10;99.90;;;;;;5134511;28;20050;-74
2022/09/18 03:48:51;;;;;;;6.65;1.25;;;10.10;99.90;;;;;;5134666;28;20047;-74
2022/09/18 03:51:18;;;;;;;4.40;1.23;;;10.20;99.90;;;;;;5134307;28;20538;-74
2022/09/18 03:53:45;;;;;;;6.50;1.45;;;10.20;99.90;;;;;;5134463;28;20036;-73
2022/09/18 03:56:12;;;;;;;6.30;1.45;;;10.70;99.90;;;;;;5134001;28;20039;-73
2022/09/18 03:58:38;;;;;;;6.05;1.25;;;10.20;99.90;;;;;;5134386;28;20035;-74
2022/09/18 04:01:04;;;;;;;8.25;1.83;;;10.20;99.90;;;;;;5134242;28;20527;-73
2022/09/18 04:03:29;;;;;;;9.40;1.35;;;10.60;99.90;;;;;;5134491;28;20066;-74
2022/09/18 04:05:55;;;;;;;5.93;1.20;;;10.20;99.90;;;;;;5134267;28;20135;-74
2022/09/18 04:08:20;;;;;;;6.22;1.50;;;10.30;99.90;;;;;;5134233;28;20638;-73
2022/09/18 04:10:47;;;;;;;5.38;1.23;;;10.30;99.90;;;;;;5133915;28;20035;-73
2022/09/18 04:13:12;;;;;;;5.70;1.42;;;10.40;99.90;;;;;;5136421;27;20077;-73
2022/09/18 04:15:38;;;;;;;4.18;1.20;;;10.30;99.90;;;;;;5137778;27;20459;-74
2022/09/18 04:18:04;;;;;;;4.68;1.10;;;10.30;99.90;;;;;;5138059;27;20043;-74
2022/09/18 04:20:30;;;;;;;4.38;1.30;;;10.30;99.90;;;;;;5137786;27;20619;-74
2022/09/18 04:22:57;;;;;;;9.35;1.10;;;10.30;99.90;;;;;;5137928;27;20130;-73
2022/09/18 04:25:22;;;;;;;8.70;1.23;;;10.30;99.90;;;;;;5137825;27;20104;-74
2022/09/18 04:27:48;;;;;;;5.45;1.45;;;10.30;99.90;;;;;;5137521;27;20047;-73
2022/09/18 04:30:14;;;;;;;6.32;1.35;;;10.30;99.90;;;;;;5138158;27;20089;-74
2022/09/18 04:32:41;;;;;;;5.93;1.02;;;10.30;99.90;;;;;;5138043;27;20031;-74
2022/09/18 04:35:07;;;;;;;8.10;1.40;;;10.30;99.90;;;;;;5137498;27;20047;-73
2022/09/18 04:37:32;;;;;;;6.15;1.10;;;10.20;99.90;;;;;;5137706;27;20130;-73
2022/09/18 04:39:58;;;;;;;5.03;1.23;;;10.20;99.90;;;;;;5137491;27;20039;-74
2022/09/18 04:42:23;;;;;;;3.58;1.13;;;10.20;99.90;;;;;;5137962;27;20039;-73
2022/09/18 04:44:49;;;;;;;5.05;0.90;;;10.20;99.90;;;;;;5137825;27;20101;-74
2022/09/18 04:47:15;;;;;;;8.15;1.35;;;10.20;99.90;;;;;;5137467;27;20047;-74
2022/09/18 04:49:40;;;;;;;4.93;0.90;;;10.20;99.90;;;;;;5137424;27;20043;-74
2022/09/18 04:52:06;;;;;;;5.57;1.33;;;10.20;99.90;;;;;;5137424;27;20050;-73
2022/09/18 04:54:31;;;;;;;8.88;1.33;;;10.20;99.90;;;;;;5137205;27;20083;-73
2022/09/18 04:56:57;;;;;;;6.63;1.05;;;10.20;99.90;;;;;;5119386;27;20043;-74
2022/09/18 04:59:23;;;;;;;2.90;1.00;;;10.20;99.90;;;;;;5119737;27;20055;-74
2022/09/18 05:01:48;;;;;;;7.60;1.20;;;10.20;99.90;;;;;;5137225;27;20039;-74
2022/09/18 05:04:15;;;;;;;3.78;1.23;;;10.20;99.90;;;;;;5137150;27;20043;-74
2022/09/18 05:06:40;;;;;;;6.93;1.27;;;10.20;99.90;;;;;;5137020;27;20064;-74
2022/09/18 05:09:06;;;;;;;6.43;1.45;;;10.20;99.90;;;;;;5137014;27;20047;-73
2022/09/18 05:11:31;;;;;;;6.63;1.00;;;10.20;99.90;;;;;;5136899;27;20546;-73
2022/09/18 05:13:58;;;;;;;4.95;1.10;;;10.20;99.90;;;;;;5136877;27;20103;-73
2022/09/18 05:16:24;;;;;;;5.13;1.60;;;10.20;99.90;;;;;;5137164;27;20049;-73
2022/09/18 05:18:51;;;;;;;4.83;1.37;;;10.60;99.90;;;;;;5136775;27;20100;-74
2022/09/18 05:21:17;;;;;;;6.47;1.20;;;10.20;99.90;;;;;;5136866;27;20292;-74
2022/09/18 05:23:44;;;;;;;6.20;1.00;;;10.20;99.90;;;;;;5135826;27;20486;-74
2022/09/18 05:26:10;;;;;;;4.28;1.67;;;10.20;99.90;;;;;;5137028;27;20035;-73
2022/09/18 05:28:36;;;;;;;6.90;1.35;;;10.20;99.90;;;;;;5137073;27;20047;-73
2022/09/18 05:31:03;;;;;;;6.40;1.35;;;10.30;99.90;;;;;;5136587;27;20183;-74
2022/09/18 05:33:28;;;;;;;3.72;1.25;;;10.30;99.90;;;;;;5136574;27;20035;-73
2022/09/18 05:35:56;;;;;;;7.10;1.60;;;10.30;99.90;;;;;;5136330;27;20069;-74
2022/09/18 05:38:23;;;;;;;3.90;1.48;;;10.30;99.90;;;;;;5136304;27;20412;-73
2022/09/18 05:40:48;;;;;;;5.60;1.05;;;10.30;99.90;;;;;;5136904;27;20082;-73
2022/09/18 05:43:14;;;;;;;3.53;0.88;;;10.30;99.90;;;;;;5136033;27;20502;-73
2022/09/18 05:45:40;;;;;;;5.05;1.00;;;10.30;99.90;;;;;;5136142;27;20047;-74
2022/09/18 05:48:06;;;;;;;4.63;1.20;;;10.30;99.90;;;;;;5136298;27;20490;-74
2022/09/18 05:50:33;;;;;;;4.13;1.17;;;10.50;99.90;;;;;;5136075;27;20038;-73
2022/09/18 05:53:06;;;;;;;4.50;1.38;;;10.30;99.90;;;;;;5135859;27;20043;-74
2022/09/18 05:55:32;;;;;;;3.70;1.10;;;10.40;99.90;;;;;;5135989;27;20402;-73
2022/09/18 05:57:59;;;;;;;5.03;1.20;;;10.40;99.90;;;;;;5136472;27;20039;-73
2022/09/18 06:00:26;;;;;;;3.60;0.90;;;10.70;99.90;;;;;;5135989;27;20285;-73
2022/09/18 06:02:57;;;;;;;3.95;1.00;;;10.40;99.90;;;;;;5135916;27;20074;-74
2022/09/18 06:05:24;;;;;;;7.45;1.65;;;10.50;99.90;;;;;;5135932;27;20114;-73
2022/09/18 06:07:50;;;;;;;3.80;1.10;;;10.50;99.90;;;;;;5136104;27;20043;-73
2022/09/18 06:10:17;;;;;;;3.15;0.80;;;10.50;99.90;;;;;;5135818;27;20122;-74
2022/09/18 06:12:43;;;;;;;3.10;1.05;;;10.50;99.90;;;;;;5135482;27;20039;-73
2022/09/18 06:15:09;;;;;;;4.47;1.13;;;10.40;99.90;;;;;;5135620;27;20035;-73
2022/09/18 06:17:35;;;;;;;5.25;1.15;;;10.40;99.90;;;;;;5135740;27;20234;-74
2022/09/18 06:20:00;;;;;;;4.15;0.95;;;10.40;99.90;;;;;;5135741;27;20185;-74
2022/09/18 06:22:26;;;;;;;2.65;0.80;;;10.50;99.90;;;;;;5116949;27;20039;-74
2022/09/18 06:24:52;;;;;;;4.63;1.15;;;10.50;99.90;;;;;;5136027;27;20031;-73
2022/09/18 06:27:17;;;;;;;4.57;1.05;;;10.50;99.90;;;;;;5135503;27;20420;-75
2022/09/18 06:29:43;;;;;;;4.05;0.93;;;10.50;99.90;;;;;;5135459;27;20108;-74
2022/09/18 06:32:09;;;;;;;6.78;1.27;;;10.50;99.90;;;;;;5135393;27;20435;-73
2022/09/18 06:34:34;;;;;;;5.30;0.93;;;10.60;99.90;;;;;;5135185;27;20127;-74
2022/09/18 06:37:00;;;;;;;4.90;1.05;;;10.50;99.90;;;;;;5135097;27;20078;-74
2022/09/18 06:39:25;;;;;;;5.57;1.40;;;10.50;99.90;;;;;;5135298;27;20364;-74
2022/09/18 06:41:51;;;;;;;6.70;1.60;;;10.50;99.90;;;;;;5135252;27;20130;-74
2022/09/18 06:44:17;;;;;;;6.60;0.85;;;10.50;99.90;;;;;;5135458;27;20063;-74
2022/09/18 06:46:42;;;;;;;6.05;0.88;;;10.50;99.90;;;;;;5116828;27;20039;-73
2022/09/18 06:49:08;;;;;;;3.00;1.05;;;10.50;99.90;;;;;;5135161;27;20122;-74
2022/09/18 06:51:34;;;;;;;7.75;1.27;;;10.60;99.90;;;;;;5134889;27;20082;-74
2022/09/18 06:54:00;;;;;;;4.88;1.25;;;10.60;99.90;;;;;;5134997;27;20074;-73
2022/09/18 06:56:25;;;;;;;4.55;1.08;;;10.50;99.90;;;;;;5135035;27;20053;-73
2022/09/18 06:58:54;;;;;;;5.93;0.98;;;10.60;99.90;;;;;;5134966;27;20487;-74
2022/09/18 07:01:20;;;;;;;7.25;2.40;;;10.60;99.90;;;;;;5116544;27;20074;-73
2022/09/18 07:03:49;;;;;;;2.70;1.10;;;10.60;99.90;;;;;;5134905;27;20077;-74
2022/09/18 07:06:15;;;;;;;2.30;0.98;;;10.60;99.90;;;;;;5116474;27;20046;-74
2022/09/18 07:08:40;;;;;;;4.25;0.90;;;10.70;99.90;;;;;;5135532;27;20169;-74
2022/09/18 07:11:06;;;;;;;6.95;1.30;;;10.60;99.90;;;;;;5134712;27;20050;-74
2022/09/18 07:13:33;;;;;;;4.53;1.27;;;10.60;99.90;;;;;;5134784;27;20039;-73
2022/09/18 07:15:59;;;;;;;4.35;1.52;;;10.70;99.90;;;;;;5135025;27;20118;-74
2022/09/18 07:18:24;;;;;;;4.72;1.02;;;10.70;99.90;;;;;;5134840;28;20465;-74
2022/09/18 07:20:52;;;;;;;5.13;0.95;;;10.70;99.90;;;;;;5134625;28;20433;-74
2022/09/18 07:23:18;;;;;;;7.93;1.10;;;10.70;99.90;;;;;;5134659;28;20053;-73
2022/09/18 07:25:44;;;;;;;5.32;1.08;;;10.70;99.90;;;;;;5134678;28;20078;-74
2022/09/18 07:28:10;;;;;;;1.63;0.73;;;10.70;99.90;;;;;;5116565;28;20078;-74
2022/09/18 07:30:37;;;;;;;3.67;0.80;;;10.70;99.90;;;;;;5134602;28;20058;-73
2022/09/18 07:33:03;;;;;;;4.50;1.00;;;10.70;99.90;;;;;;5134432;28;20078;-73
2022/09/18 07:35:29;;;;;;;4.72;1.13;;;10.80;99.90;;;;;;5134386;28;20471;-74
2022/09/18 07:37:58;;;;;;;6.60;1.15;;;10.80;99.90;;;;;;5134485;28;20104;-74
2022/09/18 07:40:25;;;;;;;4.28;1.27;;;10.80;99.90;;;;;;5134761;28;20039;-74
2022/09/18 07:42:51;;;;;;;4.47;1.10;;;10.90;99.90;;;;;;5134344;28;20130;-73
2022/09/18 07:45:16;;;;;;;6.00;1.38;;;10.80;99.90;;;;;;5134421;28;20086;-74
2022/09/18 07:47:42;;;;;;;3.72;1.00;;;10.90;99.90;;;;;;5135793;27;20118;-74
2022/09/18 07:50:14;;;;;;;3.90;1.05;;;10.90;99.90;;;;;;5120319;27;20047;-74
2022/09/18 07:52:53;;;;;;;3.53;1.17;;;10.90;99.90;;;;;;5138464;27;20124;-73
2022/09/18 07:55:20;;;;;;;5.13;1.10;;;11.00;99.90;;;;;;5138814;27;20035;-74
2022/09/18 07:57:47;;;;;;;4.40;1.08;;;11.00;99.90;;;;;;5138700;27;20055;-73
2022/09/18 08:00:14;;;;;;;4.55;1.23;;;11.00;99.90;;;;;;5138356;27;20055;-73
2022/09/18 08:02:40;;;;;;;2.75;1.00;;;11.00;99.90;;;;;;5138258;27;20446;-73
2022/09/18 08:05:06;;;;;;;3.65;1.10;;;11.00;99.90;;;;;;5138333;27;20152;-73
2022/09/18 08:07:32;;;;;;;3.58;1.15;;;11.00;99.90;;;;;;5138130;27;20107;-73
2022/09/18 08:09:57;;;;;;;3.78;1.02;;;11.20;99.90;;;;;;5120328;27;20035;-74
2022/09/18 08:12:23;;;;;;;4.03;1.15;;;11.00;99.90;;;;;;5138358;27;20047;-73
2022/09/18 08:14:49;;;;;;;4.88;1.45;;;11.10;99.90;;;;;;5137720;27;20043;-73
2022/09/18 08:17:14;;;;;;;3.42;1.10;;;11.00;99.90;;;;;;5138021;27;20057;-74
2022/09/18 08:19:40;;;;;;;6.05;1.30;;;11.00;99.90;;;;;;5137990;27;20085;-73
2022/09/18 08:22:06;;;;;;;5.30;1.73;;;11.00;99.90;;;;;;5137971;27;20079;-74
2022/09/18 08:24:32;;;;;;;6.55;2.20;;;11.00;99.90;;;;;;5138277;27;20390;-73
2022/09/18 08:27:02;;;;;;;8.65;2.40;;;11.00;99.90;;;;;;5138044;27;20046;-74
2022/09/18 08:29:28;;;;;;;5.32;1.80;;;11.00;99.90;;;;;;5137888;27;20051;-73
2022/09/18 08:31:54;;;;;;;5.82;1.60;;;11.00;99.90;;;;;;5137754;27;20039;-73
2022/09/18 08:34:20;;;;;;;3.88;1.90;;;11.00;99.90;;;;;;5137604;27;20088;-73
2022/09/18 08:36:45;;;;;;;4.70;1.38;;;11.00;99.90;;;;;;5137394;27;20035;-73
2022/09/18 08:39:11;;;;;;;2.33;1.13;;;11.00;99.90;;;;;;5137627;27;20045;-73
2022/09/18 08:42:09;;;;;;;4.28;1.50;;;10.90;99.90;;;;;;5137566;27;20540;-74
2022/09/18 08:44:59;;;;;;;4.95;1.23;;;10.90;99.90;;;;;;5138010;27;20051;-74
2022/09/18 08:47:35;;;;;;;5.53;1.38;;;11.00;99.90;;;;;;5137485;27;20051;-73
2022/09/18 08:50:25;;;;;;;2.70;0.93;;;11.00;99.90;;;;;;5137478;27;20084;-73
2022/09/18 08:52:57;;;;;;;6.25;1.27;;;11.00;99.90;;;;;;5137331;27;20054;-72
2022/09/18 08:55:33;;;;;;;4.75;1.35;;;11.00;99.90;;;;;;5138282;27;20092;-73
2022/09/18 08:58:09;;;;;;;8.05;1.50;;;11.00;99.90;;;;;;5138002;27;20043;-73
2022/09/18 09:00:51;;;;;;;2.75;0.95;;;11.10;99.90;;;;;;5136500;27;20521;-72
2022/09/18 09:03:36;;;;;;;3.42;1.08;;;11.10;99.90;;;;;;5137155;27;20438;-73
2022/09/18 09:06:13;;;;;;;3.47;0.90;;;11.10;99.90;;;;;;5137117;27;20463;-73
2022/09/18 09:08:58;;;;;;;2.97;0.80;;;11.20;99.90;;;;;;5137387;27;20051;-73
2022/09/18 09:11:38;;;;;;;5.15;1.55;;;11.30;99.90;;;;;;5137062;27;20054;-73
2022/09/18 09:14:26;;;;;;;5.93;1.10;;;11.30;99.90;;;;;;5137383;27;20444;-73
2022/09/18 09:17:15;;;;;;;2.87;0.83;;;11.30;99.90;;;;;;5136887;27;20053;-73
2022/09/18 09:19:50;;;;;;;2.92;1.00;;;11.30;99.90;;;;;;5136588;27;20552;-73
2022/09/18 09:22:22;;;;;;;2.97;1.00;;;11.30;99.90;;;;;;5136720;27;20039;-73
2022/09/18 09:25:20;;;;;;;3.72;0.90;;;11.30;99.90;;;;;;5136842;27;20482;-72
2022/09/18 09:28:17;;;;;;;3.17;1.35;;;11.40;99.90;;;;;;5136970;27;20039;-73
2022/09/18 09:30:46;;;;;;;2.38;1.25;;;11.40;99.90;;;;;;5136119;27;20054;-73
2022/09/18 09:33:52;;;;;;;5.47;0.90;;;11.40;99.90;;;;;;5118189;27;20486;-73
2022/09/18 09:36:23;;;;;;;3.50;1.25;;;11.40;99.90;;;;;;5053077;28;20447;-73
2022/09/18 09:39:03;;;;;;;5.13;1.10;;;11.40;99.90;;;;;;5106632;27;20058;-73
2022/09/18 09:41:44;;;;;;;5.15;1.20;;;11.40;99.90;;;;;;5136842;27;20057;-73
2022/09/18 09:44:20;;;;;;;3.38;1.08;;;11.50;99.90;;;;;;5136451;27;20051;-72
2022/09/18 09:47:09;;;;;;;3.80;0.82;;;11.50;99.90;;;;;;5136439;27;20158;-73
2022/09/18 09:50:08;;;;;;;2.88;1.00;;;11.50;99.90;;;;;;5136332;27;20035;-75
2022/09/18 09:52:38;;;;;;;2.45;0.93;;;11.50;99.90;;;;;;5136470;27;20051;-72
2022/09/18 09:55:39;;;;;;;3.53;0.75;;;11.50;99.90;;;;;;5136068;27;20043;-73
2022/09/18 09:58:18;;;;;;;5.90;1.35;;;11.40;99.90;;;;;;5097222;27;20051;-72
2022/09/18 10:01:05;;;;;;;4.82;0.90;;;11.40;99.90;;;;;;5136307;27;20043;-73
2022/09/18 10:04:12;;;;;;;4.97;0.98;;;11.40;99.90;;;;;;5135979;27;20047;-72
2022/09/18 10:06:52;;;;;;;7.85;1.63;;;11.30;99.90;;;;;;5069149;27;20043;-75
2022/09/18 10:09:23;;;;;;;2.92;0.98;;;11.40;99.90;;;;;;5136133;27;20095;-73
2022/09/18 10:12:08;;;;;;;4.82;1.40;;;11.40;99.90;;;;;;5135429;27;20043;-73
2022/09/18 10:14:36;;;;;;;5.85;1.80;;;11.30;99.90;;;;;;5136103;27;20166;-73
2022/09/18 10:17:04;;;;;;;4.65;1.42;;;11.40;99.90;;;;;;5135785;27;20490;-73
2022/09/18 10:19:36;;;;;;;7.45;2.35;;;11.40;99.90;;;;;;5135618;27;20134;-73
2022/09/18 10:22:06;;;;;;;3.20;0.80;;;11.70;99.90;;;;;;5135607;27;20043;-73
2022/09/18 10:24:41;;;;;;;5.40;1.35;;;11.30;99.90;;;;;;5135488;27;20035;-73
2022/09/18 10:27:12;;;;;;;2.20;0.90;;;11.40;99.90;;;;;;5135429;27;20074;-73
2022/09/18 10:29:38;;;;;;;2.65;0.80;;;11.40;99.90;;;;;;5117200;27;20130;-73
2022/09/18 10:32:05;;;;;;;3.67;0.88;;;11.40;99.90;;;;;;5135260;27;20367;-73
2022/09/18 10:34:44;;;;;;;4.32;1.40;;;11.40;99.90;;;;;;5135324;27;20054;-74
2022/09/18 10:37:35;;;;;;;2.97;1.08;;;11.50;99.90;;;;;;5135345;27;20151;-73
2022/09/18 10:40:03;;;;;;;3.22;0.75;;;11.50;99.90;;;;;;5135255;27;20087;-73
2022/09/18 10:42:31;;;;;;;4.07;0.90;;;11.50;99.90;;;;;;5135090;27;20043;-73
2022/09/18 10:45:04;;;;;;;3.80;0.93;;;11.50;99.90;;;;;;5135180;27;20051;-73
2022/09/18 10:47:35;;;;;;;3.95;0.95;;;11.50;99.90;;;;;;5135085;27;20047;-73
2022/09/18 10:50:10;;;;;;;4.00;1.02;;;11.60;99.90;;;;;;5135045;27;20039;-73
2022/09/18 10:52:40;;;;;;;2.15;0.77;;;11.60;99.90;;;;;;5135390;27;20059;-74
2022/09/18 10:55:06;;;;;;;6.80;1.10;;;11.90;99.90;;;;;;5135037;27;20502;-73
2022/09/18 10:57:34;;;;;;;1.45;0.65;;;11.70;99.90;;;;;;5135042;27;20051;-73
2022/09/18 11:00:01;;;;;;;4.90;1.00;;;11.70;99.90;;;;;;5134925;27;20461;-74
2022/09/18 11:02:33;;;;;;;2.17;0.70;;;11.70;99.90;;;;;;5134824;27;20039;-73
2022/09/18 11:05:01;;;;;;;3.92;1.00;;;11.70;99.90;;;;;;5135365;27;20386;-73
2022/09/18 11:07:27;;;;;;;2.75;0.90;;;11.80;99.90;;;;;;5134821;27;20039;-73
2022/09/18 11:09:52;;;;;;;3.97;1.10;;;11.70;99.90;;;;;;5134868;27;20036;-74
2022/09/18 11:12:26;;;;;;;3.97;1.08;;;11.90;99.90;;;;;;5134840;27;20031;-74
2022/09/18 11:15:06;;;;;;;4.28;1.17;;;11.90;99.90;;;;;;5134780;27;20099;-74
2022/09/18 11:17:35;;;;;;;3.67;1.05;;;11.90;99.90;;;;;;5134785;27;20122;-74
2022/09/18 11:20:03;;;;;;;3.13;1.02;;;12.00;99.90;;;;;;5116606;28;20054;-73
2022/09/18 11:22:40;;;;;;;6.57;1.10;;;12.00;99.90;;;;;;5133817;27;20558;-73
2022/09/18 11:25:26;;;;;;;4.50;1.20;;;12.10;99.90;;;;;;5134772;28;20043;-73
2022/09/18 11:27:59;;;;;;;2.95;1.27;;;12.10;99.90;;;;;;5116781;28;20053;-74
2022/09/18 11:30:33;;;;;;;3.35;1.23;;;12.10;99.90;;;;;;5134602;28;20073;-74
2022/09/18 11:33:19;;;;;;;3.47;0.98;;;12.10;99.90;;;;;;5116636;28;20082;-74
2022/09/18 11:35:48;;;;;;;3.08;1.35;;;12.10;99.90;;;;;;5134511;28;20035;-74
2022/09/18 11:38:18;;;;;;;5.90;1.10;;;12.20;99.90;;;;;;5134520;28;20047;-73
2022/09/18 11:40:49;;;;;;;6.43;1.15;;;12.20;99.90;;;;;;5134960;28;20103;-74
2022/09/18 11:43:25;;;;;;;4.18;1.05;;;12.20;99.90;;;;;;5134786;27;20074;-73
2022/09/18 11:46:02;;;;;;;5.35;1.42;;;12.70;99.90;;;;;;5134499;28;20047;-73
2022/09/18 11:48:31;;;;;;;5.10;1.10;;;12.30;99.90;;;;;;5134396;28;20047;-74
2022/09/18 11:51:01;;;;;;;3.30;1.08;;;12.40;99.90;;;;;;5134434;28;20501;-73
2022/09/18 11:53:30;;;;;;;4.10;1.02;;;12.40;99.90;;;;;;5116066;28;20062;-73
2022/09/18 11:56:18;;;;;;;5.43;1.67;;;12.50;99.90;;;;;;5138636;27;20038;-76
2022/09/18 11:59:00;;;;;;;3.85;1.10;;;12.50;99.90;;;;;;5155245;27;20047;-74
2022/09/18 12:01:35;;;;;;;5.18;1.15;;;12.60;99.90;;;;;;5137147;27;20135;-73
2022/09/18 12:04:25;;;;;;;4.72;1.20;;;12.60;99.90;;;;;;5155070;27;20508;-74
2022/09/18 12:06:56;;;;;;;5.30;1.58;;;12.50;99.90;;;;;;5154640;27;20050;-73
2022/09/18 12:09:39;;;;;;;4.70;1.05;;;12.70;99.90;;;;;;5154990;27;20051;-73
2022/09/18 12:12:12;;;;;;;6.55;1.38;;;12.80;99.90;;;;;;5155022;27;20065;-74
2022/09/18 12:14:52;;;;;;;5.40;1.20;;;12.90;99.90;;;;;;5154916;27;20379;-74
2022/09/18 12:17:35;;;;;;;5.75;1.48;;;12.90;99.90;;;;;;5155123;27;20053;-74
2022/09/18 12:20:11;;;;;;;5.65;1.55;;;13.00;99.90;;;;;;5154868;27;20046;-74
2022/09/18 12:22:48;;;;;;;5.57;1.58;;;13.00;99.90;;;;;;5155516;27;20039;-74
2022/09/18 12:25:16;;;;;;;5.65;1.30;;;13.10;99.90;;;;;;5154915;27;20080;-74
2022/09/18 12:28:01;;;;;;;8.52;1.30;;;13.10;99.90;;;;;;5154830;27;20051;-74
2022/09/18 12:30:59;;;;;;;4.40;1.20;;;13.10;99.90;;;;;;5137736;27;20059;-74
2022/09/18 12:33:47;;;;;;;7.43;2.10;;;13.10;99.90;;;;;;5148643;27;20086;-74
2022/09/18 12:36:35;;;;;;;5.38;1.25;;;13.20;99.90;;;;;;5144628;27;20046;-74
2022/09/18 12:39:27;;;;;;;6.20;1.30;;;13.20;99.90;;;;;;5158425;27;20043;-73
2022/09/18 12:42:14;;;;;;;5.88;1.63;;;13.20;99.90;;;;;;5158708;27;20042;-73
2022/09/18 12:45:12;;;;;;;7.53;1.50;;;13.30;99.90;;;;;;5158416;27;20047;-74
2022/09/18 12:48:02;;;;;;;8.13;1.70;;;13.40;99.90;;;;;;5139523;27;20054;-74
2022/09/18 12:50:47;;;;;;;6.85;1.95;;;13.40;99.90;;;;;;5158426;27;20432;-73
2022/09/18 12:53:37;;;;;;;5.65;1.55;;;13.40;99.90;;;;;;5158145;27;20083;-73
2022/09/18 12:56:12;;;;;;;6.65;1.35;;;13.40;99.90;;;;;;5158329;27;20390;-74
2022/09/18 12:58:59;;;;;;;7.90;1.73;;;13.40;99.90;;;;;;5158026;27;20046;-74
2022/09/18 13:01:44;;;;;;;8.30;2.50;;;13.40;99.90;;;;;;5157974;27;20042;-73
2022/09/18 13:04:44;;;;;;;5.70;1.90;;;13.50;99.90;;;;;;5157723;27;20042;-74
2022/09/18 13:07:17;;;;;;;5.40;2.17;;;13.50;99.90;;;;;;5152883;27;20164;-73
2022/09/18 13:09:43;;;;;;;5.90;1.75;;;13.50;99.90;;;;;;5157801;27;20050;-74
2022/09/18 13:12:17;;;;;;;6.30;1.92;;;13.50;99.90;;;;;;5157738;27;20051;-74
2022/09/18 13:14:50;;;;;;;6.57;1.35;;;13.50;99.90;;;;;;5158064;27;20046;-74
2022/09/18 13:17:29;;;;;;;4.20;1.45;;;13.50;99.90;;;;;;5158020;27;20053;-74